sensor_id;sensor_type;location;lat;lon;timestamp;temperature;humidity
20366;DHT22;10341;49.894;8.822;2023-02-28T00:00:55;-2.10;99.90
20366;DHT22;10341;49.894;8.822;2023-02-28T00:06:15;-2.10;99.90
20366;DHT22;10341;49.894;8.822;2023-02-28T00:11:35;-2.10;99.90
20366;DHT22;10341;49.894;8.822;2023-02-28T00:16:56;-2.30;99.90
20366;DHT22;10341;49.894;8.822;2023-02-28T00:22:17;-2.40;99.90
20366;DHT22;10341;49.894;8.822;2023-02-28T00:27:38;-2.50;99.90
20366;DHT22;10341;49.894;8.822;2023-02-28T00:32:58;-2.50;99.90
20366;DHT22;10341;49.894;8.822;2023-02-28T00:38:18;-2.70;99.90
20366;DHT22;10341;49.894;8.822;2023-02-28T00:43:39;-2.70;99.90
20366;DHT22;10341;49.894;8.822;2023-02-28T00:48:58;-2.80;99.90
20366;DHT22;10341;49.894;8.822;2023-02-28T00:54:18;-2.90;99.90
20366;DHT22;10341;49.894;8.822;2023-02-28T00:59:39;-2.80;99.90
20366;DHT22;10341;49.894;8.822;2023-02-28T01:04:59;-2.80;99.90
20366;DHT22;10341;49.894;8.822;2023-02-28T01:10:22;-2.90;99.90
20366;DHT22;10341;49.894;8.822;2023-02-28T01:15:50;-2.90;99.90
20366;DHT22;10341;49.894;8.822;2023-02-28T01:21:13;-3.00;99.90
20366;DHT22;10341;49.894;8.822;2023-02-28T01:26:33;-3.00;99.90
20366;DHT22;10341;49.894;8.822;2023-02-28T01:31:53;-3.00;99.90
20366;DHT22;10341;49.894;8.822;2023-02-28T01:37:13;-3.10;99.90
20366;DHT22;10341;49.894;8.822;2023-02-28T01:42:36;-3.20;99.90
20366;DHT22;10341;49.894;8.822;2023-02-28T01:48:02;-3.20;99.90
20366;DHT22;10341;49.894;8.822;2023-02-28T01:53:29;-3.20;99.90
20366;DHT22;10341;49.894;8.822;2023-02-28T01:58:52;-3.10;99.90
20366;DHT22;10341;49.894;8.822;2023-02-28T02:04:12;-3.10;99.90
20366;DHT22;10341;49.894;8.822;2023-02-28T02:09:31;-3.10;99.90
20366;DHT22;10341;49.894;8.822;2023-02-28T02:15:16;-3.00;99.90
20366;DHT22;10341;49.894;8.822;2023-02-28T02:38:17;-3.00;99.90
20366;DHT22;10341;49.894;8.822;2023-02-28T02:43:49;-3.00;99.90
20366;DHT22;10341;49.894;8.822;2023-02-28T02:49:22;-3.00;99.90
20366;DHT22;10341;49.894;8.822;2023-02-28T02:54:45;-2.90;99.90
20366;DHT22;10341;49.894;8.822;2023-02-28T03:00:06;-3.00;99.90
20366;DHT22;10341;49.894;8.822;2023-02-28T03:05:42;-2.90;99.90
20366;DHT22;10341;49.894;8.822;2023-02-28T03:11:06;-3.00;99.90
20366;DHT22;10341;49.894;8.822;2023-02-28T03:16:41;-3.10;99.90
20366;DHT22;10341;49.894;8.822;2023-02-28T03:27:42;-3.30;99.90
20366;DHT22;10341;49.894;8.822;2023-02-28T03:33:32;-3.40;99.90
20366;DHT22;10341;49.894;8.822;2023-02-28T03:39:08;-3.50;99.90
20366;DHT22;10341;49.894;8.822;2023-02-28T03:44:32;-3.50;99.90
20366;DHT22;10341;49.894;8.822;2023-02-28T03:49:59;-3.60;99.90
20366;DHT22;10341;49.894;8.822;2023-02-28T03:55:20;-3.60;99.90
20366;DHT22;10341;49.894;8.822;2023-02-28T04:00:45;-3.60;99.90
20366;DHT22;10341;49.894;8.822;2023-02-28T04:06:18;-3.60;99.90
20366;DHT22;10341;49.894;8.822;2023-02-28T04:11:45;-3.50;99.90
20366;DHT22;10341;49.894;8.822;2023-02-28T04:17:07;-3.50;99.90
20366;DHT22;10341;49.894;8.822;2023-02-28T04:22:27;-3.30;99.90
20366;DHT22;10341;49.894;8.822;2023-02-28T04:27:46;-3.30;99.90
20366;DHT22;10341;49.894;8.822;2023-02-28T04:33:05;-3.30;99.90
20366;DHT22;10341;49.894;8.822;2023-02-28T04:38:25;-3.30;99.90
20366;DHT22;10341;49.894;8.822;2023-02-28T04:43:44;-3.30;99.90
20366;DHT22;10341;49.894;8.822;2023-02-28T04:49:03;-3.50;99.90
20366;DHT22;10341;49.894;8.822;2023-02-28T04:54:23;-3.50;99.90
20366;DHT22;10341;49.894;8.822;2023-02-28T04:59:42;-3.40;99.90
20366;DHT22;10341;49.894;8.822;2023-02-28T05:05:02;-3.50;99.90
20366;DHT22;10341;49.894;8.822;2023-02-28T05:10:22;-3.60;99.90
20366;DHT22;10341;49.894;8.822;2023-02-28T05:15:41;-3.70;99.90
20366;DHT22;10341;49.894;8.822;2023-02-28T05:21:02;-3.80;99.90
20366;DHT22;10341;49.894;8.822;2023-02-28T05:26:22;-3.80;99.90
20366;DHT22;10341;49.894;8.822;2023-02-28T05:31:41;-3.90;99.90
20366;DHT22;10341;49.894;8.822;2023-02-28T05:37:00;-3.90;99.90
20366;DHT22;10341;49.894;8.822;2023-02-28T05:42:19;-3.90;99.90
20366;DHT22;10341;49.894;8.822;2023-02-28T05:47:39;-4.00;99.90
20366;DHT22;10341;49.894;8.822;2023-02-28T05:52:58;-4.00;99.90
20366;DHT22;10341;49.894;8.822;2023-02-28T05:58:18;-3.90;99.90
20366;DHT22;10341;49.894;8.822;2023-02-28T06:03:37;-4.00;99.90
20366;DHT22;10341;49.894;8.822;2023-02-28T06:08:57;-3.90;99.90
20366;DHT22;10341;49.894;8.822;2023-02-28T06:14:18;-4.20;99.90
20366;DHT22;10341;49.894;8.822;2023-02-28T06:19:38;-4.30;99.90
20366;DHT22;10341;49.894;8.822;2023-02-28T06:24:58;-4.30;99.90
20366;DHT22;10341;49.894;8.822;2023-02-28T06:30:17;-4.30;99.90
20366;DHT22;10341;49.894;8.822;2023-02-28T06:35:37;-4.40;99.90
20366;DHT22;10341;49.894;8.822;2023-02-28T06:40:58;-4.30;99.90
20366;DHT22;10341;49.894;8.822;2023-02-28T06:46:18;-4.20;99.90
20366;DHT22;10341;49.894;8.822;2023-02-28T06:51:41;-4.10;99.90
20366;DHT22;10341;49.894;8.822;2023-02-28T06:57:01;-3.90;99.90
20366;DHT22;10341;49.894;8.822;2023-02-28T07:02:20;-3.70;99.90
20366;DHT22;10341;49.894;8.822;2023-02-28T07:07:40;-3.60;99.90
20366;DHT22;10341;49.894;8.822;2023-02-28T07:13:04;-3.30;99.90
20366;DHT22;10341;49.894;8.822;2023-02-28T07:18:23;-2.90;99.90
20366;DHT22;10341;49.894;8.822;2023-02-28T07:23:42;-2.40;99.90
20366;DHT22;10341;49.894;8.822;2023-02-28T07:29:03;-1.70;99.90
20366;DHT22;10341;49.894;8.822;2023-02-28T07:34:22;-0.80;99.90
20366;DHT22;10341;49.894;8.822;2023-02-28T07:39:42;0.00;99.90
20366;DHT22;10341;49.894;8.822;2023-02-28T07:45:01;1.00;99.90
20366;DHT22;10341;49.894;8.822;2023-02-28T07:50:21;1.80;99.90
20366;DHT22;10341;49.894;8.822;2023-02-28T07:55:40;2.70;99.90
20366;DHT22;10341;49.894;8.822;2023-02-28T08:01:07;3.20;99.90
20366;DHT22;10341;49.894;8.822;2023-02-28T08:06:27;3.60;99.90
20366;DHT22;10341;49.894;8.822;2023-02-28T08:11:46;4.40;99.90
20366;DHT22;10341;49.894;8.822;2023-02-28T08:17:06;4.90;99.90
20366;DHT22;10341;49.894;8.822;2023-02-28T08:22:25;5.10;99.90
20366;DHT22;10341;49.894;8.822;2023-02-28T08:27:45;5.30;99.90
20366;DHT22;10341;49.894;8.822;2023-02-28T08:33:04;5.60;99.90
20366;DHT22;10341;49.894;8.822;2023-02-28T08:38:24;6.40;99.50
20366;DHT22;10341;49.894;8.822;2023-02-28T08:43:44;7.30;97.10
20366;DHT22;10341;49.894;8.822;2023-02-28T08:49:03;8.60;95.00
20366;DHT22;10341;49.894;8.822;2023-02-28T08:54:23;9.60;92.30
20366;DHT22;10341;49.894;8.822;2023-02-28T08:59:43;10.20;90.30
20366;DHT22;10341;49.894;8.822;2023-02-28T09:05:02;10.60;88.00
20366;DHT22;10341;49.894;8.822;2023-02-28T09:10:22;12.30;82.70
20366;DHT22;10341;49.894;8.822;2023-02-28T09:15:41;12.40;81.30
20366;DHT22;10341;49.894;8.822;2023-02-28T09:21:06;13.00;77.60
20366;DHT22;10341;49.894;8.822;2023-02-28T09:26:27;12.70;77.00
20366;DHT22;10341;49.894;8.822;2023-02-28T09:31:46;11.90;77.40
20366;DHT22;10341;49.894;8.822;2023-02-28T09:37:06;12.40;77.70
20366;DHT22;10341;49.894;8.822;2023-02-28T09:42:31;12.30;76.30
20366;DHT22;10341;49.894;8.822;2023-02-28T09:47:54;13.10;73.50
20366;DHT22;10341;49.894;8.822;2023-02-28T09:53:33;13.60;71.20
20366;DHT22;10341;49.894;8.822;2023-02-28T09:59:04;13.00;71.50
20366;DHT22;10341;49.894;8.822;2023-02-28T10:04:54;14.50;69.50
20366;DHT22;10341;49.894;8.822;2023-02-28T10:10:30;13.90;68.30
20366;DHT22;10341;49.894;8.822;2023-02-28T10:16:03;13.70;69.20
20366;DHT22;10341;49.894;8.822;2023-02-28T10:21:27;10.70;74.00
20366;DHT22;10341;49.894;8.822;2023-02-28T10:26:48;12.00;70.60
20366;DHT22;10341;49.894;8.822;2023-02-28T10:32:12;12.30;69.40
20366;DHT22;10341;49.894;8.822;2023-02-28T10:37:33;12.60;71.80
20366;DHT22;10341;49.894;8.822;2023-02-28T10:43:05;14.20;67.10
20366;DHT22;10341;49.894;8.822;2023-02-28T10:48:47;13.40;67.30
20366;DHT22;10341;49.894;8.822;2023-02-28T11:00:51;11.20;69.50
20366;DHT22;10341;49.894;8.822;2023-02-28T11:06:20;8.90;77.20
20366;DHT22;10341;49.894;8.822;2023-02-28T11:11:45;8.30;77.60
20366;DHT22;10341;49.894;8.822;2023-02-28T11:17:21;7.80;78.50
20366;DHT22;10341;49.894;8.822;2023-02-28T11:22:44;8.20;79.60
20366;DHT22;10341;49.894;8.822;2023-02-28T11:28:06;12.10;72.00
20366;DHT22;10341;49.894;8.822;2023-02-28T11:33:48;13.90;68.10
20366;DHT22;10341;49.894;8.822;2023-02-28T11:39:11;13.00;68.80
20366;DHT22;10341;49.894;8.822;2023-02-28T11:56:06;10.20;73.30
20366;DHT22;10341;49.894;8.822;2023-02-28T12:01:32;11.40;73.10
20366;DHT22;10341;49.894;8.822;2023-02-28T12:18:24;11.90;69.30
20366;DHT22;10341;49.894;8.822;2023-02-28T12:40:56;13.20;65.80
20366;DHT22;10341;49.894;8.822;2023-02-28T12:46:17;13.40;67.50
20366;DHT22;10341;49.894;8.822;2023-02-28T12:51:38;12.40;68.30
20366;DHT22;10341;49.894;8.822;2023-02-28T12:57:06;12.20;69.90
20366;DHT22;10341;49.894;8.822;2023-02-28T13:08:45;14.20;65.80
20366;DHT22;10341;49.894;8.822;2023-02-28T13:52:21;11.80;68.00
20366;DHT22;10341;49.894;8.822;2023-02-28T14:09:23;14.40;65.40
20366;DHT22;10341;49.894;8.822;2023-02-28T14:20:05;14.10;64.10
20366;DHT22;10341;49.894;8.822;2023-02-28T14:25:55;14.20;63.50
20366;DHT22;10341;49.894;8.822;2023-02-28T14:31:36;13.50;64.30
20366;DHT22;10341;49.894;8.822;2023-02-28T14:36:58;13.00;65.00
20366;DHT22;10341;49.894;8.822;2023-02-28T14:42:54;12.60;65.80
20366;DHT22;10341;49.894;8.822;2023-02-28T14:48:16;11.10;68.50
20366;DHT22;10341;49.894;8.822;2023-02-28T14:53:37;10.00;71.60
20366;DHT22;10341;49.894;8.822;2023-02-28T14:58:56;8.90;75.20
20366;DHT22;10341;49.894;8.822;2023-02-28T15:04:24;8.20;76.50
20366;DHT22;10341;49.894;8.822;2023-02-28T15:09:44;8.00;76.60
20366;DHT22;10341;49.894;8.822;2023-02-28T15:15:04;7.70;78.30
20366;DHT22;10341;49.894;8.822;2023-02-28T15:20:24;7.50;78.00
20366;DHT22;10341;49.894;8.822;2023-02-28T15:25:44;7.50;79.40
20366;DHT22;10341;49.894;8.822;2023-02-28T15:31:19;7.40;80.00
20366;DHT22;10341;49.894;8.822;2023-02-28T15:36:39;7.50;80.80
20366;DHT22;10341;49.894;8.822;2023-02-28T15:42:18;7.40;79.70
20366;DHT22;10341;49.894;8.822;2023-02-28T15:47:39;7.30;80.20
20366;DHT22;10341;49.894;8.822;2023-02-28T15:53:00;7.30;80.60
20366;DHT22;10341;49.894;8.822;2023-02-28T15:58:24;7.00;80.80
20366;DHT22;10341;49.894;8.822;2023-02-28T16:03:47;6.90;82.40
20366;DHT22;10341;49.894;8.822;2023-02-28T16:09:16;6.90;82.90
20366;DHT22;10341;49.894;8.822;2023-02-28T16:14:36;6.80;83.00
20366;DHT22;10341;49.894;8.822;2023-02-28T16:19:57;6.70;83.50
20366;DHT22;10341;49.894;8.822;2023-02-28T16:25:19;6.60;84.20
20366;DHT22;10341;49.894;8.822;2023-02-28T16:30:39;6.40;84.10
20366;DHT22;10341;49.894;8.822;2023-02-28T16:36:00;6.20;85.10
20366;DHT22;10341;49.894;8.822;2023-02-28T16:41:24;5.90;85.90
20366;DHT22;10341;49.894;8.822;2023-02-28T16:46:44;5.80;87.20
20366;DHT22;10341;49.894;8.822;2023-02-28T16:52:03;5.50;87.90
20366;DHT22;10341;49.894;8.822;2023-02-28T16:57:23;5.30;89.10
20366;DHT22;10341;49.894;8.822;2023-02-28T17:02:43;5.10;90.10
20366;DHT22;10341;49.894;8.822;2023-02-28T17:08:02;4.80;90.80
20366;DHT22;10341;49.894;8.822;2023-02-28T17:13:22;4.60;91.30
20366;DHT22;10341;49.894;8.822;2023-02-28T17:18:41;4.30;92.10
20366;DHT22;10341;49.894;8.822;2023-02-28T17:24:01;4.10;92.70
20366;DHT22;10341;49.894;8.822;2023-02-28T17:29:21;4.00;93.40
20366;DHT22;10341;49.894;8.822;2023-02-28T17:34:40;3.80;94.10
20366;DHT22;10341;49.894;8.822;2023-02-28T17:40:00;3.60;95.00
20366;DHT22;10341;49.894;8.822;2023-02-28T17:45:20;3.40;96.00
20366;DHT22;10341;49.894;8.822;2023-02-28T17:50:40;3.20;96.50
20366;DHT22;10341;49.894;8.822;2023-02-28T17:55:59;3.00;97.50
20366;DHT22;10341;49.894;8.822;2023-02-28T18:01:19;2.80;98.60
20366;DHT22;10341;49.894;8.822;2023-02-28T18:06:43;2.60;99.50
20366;DHT22;10341;49.894;8.822;2023-02-28T18:12:07;2.40;99.90
20366;DHT22;10341;49.894;8.822;2023-02-28T18:17:27;2.30;99.90
20366;DHT22;10341;49.894;8.822;2023-02-28T18:22:47;2.10;99.90
20366;DHT22;10341;49.894;8.822;2023-02-28T18:28:06;1.90;99.90
20366;DHT22;10341;49.894;8.822;2023-02-28T18:33:26;1.80;99.90
20366;DHT22;10341;49.894;8.822;2023-02-28T18:38:46;1.70;99.90
20366;DHT22;10341;49.894;8.822;2023-02-28T18:44:06;1.50;99.90
20366;DHT22;10341;49.894;8.822;2023-02-28T18:49:25;1.40;99.90
20366;DHT22;10341;49.894;8.822;2023-02-28T18:54:45;1.30;99.90
20366;DHT22;10341;49.894;8.822;2023-02-28T19:00:05;1.20;99.90
20366;DHT22;10341;49.894;8.822;2023-02-28T19:05:25;1.10;99.90
20366;DHT22;10341;49.894;8.822;2023-02-28T19:10:46;0.90;99.90
20366;DHT22;10341;49.894;8.822;2023-02-28T19:16:06;0.80;99.90
20366;DHT22;10341;49.894;8.822;2023-02-28T19:21:26;0.70;99.90
20366;DHT22;10341;49.894;8.822;2023-02-28T19:26:49;0.60;99.90
20366;DHT22;10341;49.894;8.822;2023-02-28T19:32:08;0.50;99.90
20366;DHT22;10341;49.894;8.822;2023-02-28T19:37:28;0.40;99.90
20366;DHT22;10341;49.894;8.822;2023-02-28T19:42:47;0.30;99.90
20366;DHT22;10341;49.894;8.822;2023-02-28T19:48:08;0.30;99.90
20366;DHT22;10341;49.894;8.822;2023-02-28T19:53:31;0.20;99.90
20366;DHT22;10341;49.894;8.822;2023-02-28T19:58:51;0.10;99.90
20366;DHT22;10341;49.894;8.822;2023-02-28T20:04:10;-0.10;99.90
20366;DHT22;10341;49.894;8.822;2023-02-28T20:09:30;-0.10;99.90
20366;DHT22;10341;49.894;8.822;2023-02-28T20:14:51;-0.20;99.90
20366;DHT22;10341;49.894;8.822;2023-02-28T20:20:11;-0.30;99.90
20366;DHT22;10341;49.894;8.822;2023-02-28T20:25:30;-0.30;99.90
20366;DHT22;10341;49.894;8.822;2023-02-28T20:30:51;-0.30;99.90
20366;DHT22;10341;49.894;8.822;2023-02-28T20:36:11;-0.30;99.90
20366;DHT22;10341;49.894;8.822;2023-02-28T20:41:31;-0.30;99.90
20366;DHT22;10341;49.894;8.822;2023-02-28T20:46:51;-0.40;99.90
20366;DHT22;10341;49.894;8.822;2023-02-28T20:52:10;-0.40;99.90
20366;DHT22;10341;49.894;8.822;2023-02-28T20:57:29;-0.50;99.90
20366;DHT22;10341;49.894;8.822;2023-02-28T21:02:49;-0.50;99.90
20366;DHT22;10341;49.894;8.822;2023-02-28T21:08:08;-0.60;99.90
20366;DHT22;10341;49.894;8.822;2023-02-28T21:13:28;-0.70;99.90
20366;DHT22;10341;49.894;8.822;2023-02-28T21:18:48;-0.80;99.90
20366;DHT22;10341;49.894;8.822;2023-02-28T21:24:11;-0.90;99.90
20366;DHT22;10341;49.894;8.822;2023-02-28T21:29:31;-0.90;99.90
20366;DHT22;10341;49.894;8.822;2023-02-28T21:34:53;-0.90;99.90
20366;DHT22;10341;49.894;8.822;2023-02-28T21:40:12;-1.10;99.90
20366;DHT22;10341;49.894;8.822;2023-02-28T21:45:33;-1.20;99.90
20366;DHT22;10341;49.894;8.822;2023-02-28T21:51:00;-1.40;99.90
20366;DHT22;10341;49.894;8.822;2023-02-28T21:56:26;-1.50;99.90
20366;DHT22;10341;49.894;8.822;2023-02-28T22:01:48;-1.50;99.90
20366;DHT22;10341;49.894;8.822;2023-02-28T22:07:09;-1.50;99.90
20366;DHT22;10341;49.894;8.822;2023-02-28T22:12:29;-1.60;99.90
20366;DHT22;10341;49.894;8.822;2023-02-28T22:17:48;-1.70;99.90
20366;DHT22;10341;49.894;8.822;2023-02-28T22:23:07;-1.80;99.90
20366;DHT22;10341;49.894;8.822;2023-02-28T22:28:28;-1.80;99.90
20366;DHT22;10341;49.894;8.822;2023-02-28T22:33:50;-1.90;99.90
20366;DHT22;10341;49.894;8.822;2023-02-28T22:39:11;-2.00;99.90
20366;DHT22;10341;49.894;8.822;2023-02-28T22:44:30;-2.00;99.90
20366;DHT22;10341;49.894;8.822;2023-02-28T22:49:50;-2.10;99.90
20366;DHT22;10341;49.894;8.822;2023-02-28T22:55:10;-2.10;99.90
20366;DHT22;10341;49.894;8.822;2023-02-28T23:00:29;-2.10;99.90
20366;DHT22;10341;49.894;8.822;2023-02-28T23:05:49;-2.20;99.90
20366;DHT22;10341;49.894;8.822;2023-02-28T23:11:15;-2.30;99.90
20366;DHT22;10341;49.894;8.822;2023-02-28T23:16:44;-2.30;99.90
20366;DHT22;10341;49.894;8.822;2023-02-28T23:22:04;-2.30;99.90
20366;DHT22;10341;49.894;8.822;2023-02-28T23:27:23;-2.30;99.90
20366;DHT22;10341;49.894;8.822;2023-02-28T23:32:43;-2.20;99.90
20366;DHT22;10341;49.894;8.822;2023-02-28T23:38:02;-2.20;99.90
20366;DHT22;10341;49.894;8.822;2023-02-28T23:43:22;-2.20;99.90
20366;DHT22;10341;49.894;8.822;2023-02-28T23:48:42;-2.20;99.90
20366;DHT22;10341;49.894;8.822;2023-02-28T23:54:02;-2.20;99.90
20366;DHT22;10341;49.894;8.822;2023-02-28T23:59:21;-2.30;99.90
